createdAt,value
2023-05-19T00:01:45.661Z,4.97
2023-05-19T00:04:50.044Z,4.20
2023-05-19T00:07:58.780Z,4.80
2023-05-19T00:11:02.096Z,4.22
2023-05-19T00:14:09.810Z,3.47
2023-05-19T00:17:12.952Z,5.90
2023-05-19T00:20:15.958Z,3.87
2023-05-19T00:23:18.723Z,3.73
2023-05-19T00:26:22.956Z,3.50
2023-05-19T00:29:41.209Z,4.25
2023-05-19T00:32:43.987Z,4.53
2023-05-19T00:35:46.812Z,3.87
2023-05-19T00:38:51.457Z,4.27
2023-05-19T00:41:54.163Z,4.55
2023-05-19T00:44:56.896Z,4.10
2023-05-19T00:47:59.651Z,4.43
2023-05-19T00:51:04.914Z,5.40
2023-05-19T00:54:08.724Z,3.97
2023-05-19T00:57:12.573Z,4.82
2023-05-19T01:00:16.419Z,5.05
2023-05-19T01:03:20.873Z,3.97
2023-05-19T01:06:23.826Z,3.83
2023-05-19T01:09:27.043Z,4.07
2023-05-19T01:12:30.281Z,4.93
2023-05-19T01:16:02.049Z,5.05
2023-05-19T01:19:28.074Z,3.85
2023-05-19T01:22:43.113Z,4.43
2023-05-19T01:26:04.243Z,4.77
2023-05-19T01:29:34.799Z,5.13
2023-05-19T01:32:41.499Z,3.58
2023-05-19T01:35:47.751Z,4.82
2023-05-19T01:38:52.551Z,4.27
2023-05-19T01:41:55.474Z,4.30
2023-05-19T01:44:58.447Z,4.43
2023-05-19T01:48:04.356Z,4.55
2023-05-19T01:51:07.245Z,3.55
2023-05-19T01:54:12.844Z,4.40
2023-05-19T01:57:28.441Z,3.90
2023-05-19T02:00:49.881Z,4.28
2023-05-19T02:04:31.421Z,4.07
2023-05-19T02:07:41.752Z,4.22
2023-05-19T02:10:54.232Z,3.97
2023-05-19T02:14:02.670Z,4.30
2023-05-19T02:17:06.264Z,3.75
2023-05-19T02:20:10.627Z,4.20
2023-05-19T02:23:13.370Z,4.28
2023-05-19T02:26:16.270Z,4.13
2023-05-19T02:29:22.148Z,4.97
2023-05-19T02:32:26.394Z,4.30
2023-05-19T02:35:29.701Z,4.38
2023-05-19T02:38:32.772Z,4.65
2023-05-19T02:41:35.582Z,3.90
2023-05-19T02:44:38.328Z,4.97
2023-05-19T02:47:41.731Z,5.63
2023-05-19T02:50:44.576Z,3.92
2023-05-19T02:53:47.361Z,4.03
2023-05-19T02:56:50.050Z,5.20
2023-05-19T02:59:52.977Z,5.53
2023-05-19T03:02:55.782Z,4.57
2023-05-19T03:05:59.371Z,4.30
2023-05-19T03:09:02.057Z,4.40
2023-05-19T03:12:07.465Z,4.63
2023-05-19T03:15:13.249Z,4.87
2023-05-19T03:18:16.806Z,7.88
2023-05-19T03:21:19.645Z,4.93
2023-05-19T03:24:25.225Z,3.92
2023-05-19T03:27:28.024Z,4.17
2023-05-19T03:30:31.138Z,4.17
2023-05-19T03:33:54.274Z,3.13
2023-05-19T03:36:58.024Z,3.78
2023-05-19T03:40:00.777Z,3.67
2023-05-19T03:43:03.685Z,3.50
2023-05-19T03:46:07.498Z,4.37
2023-05-19T03:49:25.404Z,5.00
2023-05-19T03:52:51.373Z,4.53
2023-05-19T03:56:04.622Z,3.90
2023-05-19T03:59:08.429Z,4.50
2023-05-19T04:02:12.156Z,4.93
2023-05-19T04:05:15.387Z,4.78
2023-05-19T04:08:18.136Z,3.25
2023-05-19T04:11:21.666Z,3.85
2023-05-19T04:14:24.921Z,4.63
2023-05-19T04:17:28.063Z,4.10
2023-05-19T04:20:31.182Z,4.20
2023-05-19T04:23:34.125Z,4.13
2023-05-19T04:26:38.575Z,4.28
2023-05-19T04:29:41.653Z,3.60
2023-05-19T04:32:44.465Z,4.13
2023-05-19T04:35:50.440Z,4.38
2023-05-19T04:38:55.238Z,4.32
2023-05-19T04:42:02.923Z,3.85
2023-05-19T04:45:09.165Z,3.50
2023-05-19T04:48:16.113Z,4.30
2023-05-19T04:51:20.034Z,4.07
2023-05-19T04:54:23.010Z,4.78
2023-05-19T04:57:27.354Z,4.60
2023-05-19T05:00:30.778Z,4.20
2023-05-19T05:03:36.312Z,4.53
2023-05-19T05:06:40.689Z,5.28
2023-05-19T05:09:43.449Z,4.15
2023-05-19T05:12:46.483Z,4.88
2023-05-19T05:15:50.010Z,4.97
2023-05-19T05:18:53.124Z,5.03
2023-05-19T05:21:56.455Z,4.70
2023-05-19T05:24:59.651Z,4.38
2023-05-19T05:28:06.058Z,4.43
2023-05-19T05:31:11.856Z,4.97
2023-05-19T05:34:15.957Z,5.07
2023-05-19T05:37:19.333Z,4.13
2023-05-19T05:40:22.168Z,4.55
2023-05-19T05:43:25.062Z,3.85
2023-05-19T05:46:33.522Z,4.47
2023-05-19T05:49:39.503Z,5.47
2023-05-19T05:52:52.426Z,4.93
2023-05-19T05:56:01.015Z,5.55
2023-05-19T05:59:14.448Z,4.50
2023-05-19T06:02:18.989Z,5.00
2023-05-19T06:05:22.922Z,6.20
2023-05-19T06:08:27.618Z,5.22
2023-05-19T06:11:31.165Z,5.05
2023-05-19T06:14:38.834Z,6.28
2023-05-19T06:18:02.153Z,9.17
2023-05-19T06:21:06.260Z,6.30
2023-05-19T06:24:09.184Z,6.70
2023-05-19T06:27:12.033Z,5.20
2023-05-19T06:30:15.293Z,8.48
2023-05-19T06:33:29.349Z,5.90
2023-05-19T06:36:35.387Z,9.97
2023-05-19T06:39:38.877Z,5.93
2023-05-19T06:42:41.857Z,6.32
2023-05-19T06:45:54.513Z,7.32
2023-05-19T06:49:02.302Z,5.80
2023-05-19T06:52:10.150Z,12.63
2023-05-19T06:55:13.968Z,7.68
2023-05-19T06:58:17.003Z,8.32
2023-05-19T07:01:21.657Z,7.72
2023-05-19T07:04:40.698Z,8.50
2023-05-19T07:07:44.903Z,6.57
2023-05-19T07:10:50.618Z,6.57
2023-05-19T07:13:53.910Z,9.45
2023-05-19T07:17:02.902Z,6.70
2023-05-19T07:20:12.369Z,9.30
2023-05-19T07:23:17.273Z,8.50
2023-05-19T07:26:22.927Z,5.07
2023-05-19T07:29:27.956Z,6.28
2023-05-19T07:32:31.121Z,8.32
2023-05-19T07:35:34.971Z,5.67
2023-05-19T07:38:38.135Z,6.27
2023-05-19T07:41:44.442Z,5.90
2023-05-19T07:44:48.012Z,5.13
2023-05-19T07:47:51.059Z,4.47
2023-05-19T07:50:53.994Z,4.47
2023-05-19T07:53:57.719Z,6.13
2023-05-19T07:57:01.176Z,5.88
2023-05-19T08:00:07.938Z,4.88
2023-05-19T08:03:31.297Z,5.10
2023-05-19T08:06:35.469Z,8.00
2023-05-19T08:09:38.320Z,7.60
2023-05-19T08:12:41.355Z,5.60
2023-05-19T08:15:44.366Z,5.32
2023-05-19T08:18:47.375Z,6.25
2023-05-19T08:21:50.308Z,6.37
2023-05-19T08:24:53.163Z,5.73
2023-05-19T08:27:56.006Z,5.40
2023-05-19T08:30:58.854Z,5.65
2023-05-19T08:34:01.837Z,7.93
2023-05-19T08:37:04.971Z,7.50
2023-05-19T08:40:10.689Z,8.10
2023-05-19T08:43:13.672Z,5.43
2023-05-19T08:46:17.242Z,6.32
2023-05-19T08:49:25.869Z,8.80
2023-05-19T08:52:57.992Z,5.37
2023-05-19T08:56:15.135Z,8.77
2023-05-19T08:59:19.760Z,6.93
2023-05-19T09:02:23.832Z,8.75
2023-05-19T09:05:26.791Z,11.50
2023-05-19T09:08:29.810Z,6.03
2023-05-19T09:11:34.128Z,6.43
2023-05-19T09:14:37.677Z,8.85
2023-05-19T09:17:40.979Z,6.68
2023-05-19T09:20:48.290Z,5.20
2023-05-19T09:23:51.290Z,5.13
2023-05-19T09:27:00.480Z,5.60
2023-05-19T09:30:10.550Z,5.53
2023-05-19T09:33:22.918Z,7.55
2023-05-19T09:36:27.989Z,11.88
2023-05-19T09:39:31.055Z,14.40
2023-05-19T09:42:37.971Z,16.53
2023-05-19T09:45:41.008Z,17.67
2023-05-19T09:48:44.167Z,19.10
2023-05-19T09:51:49.877Z,21.35
2023-05-19T09:54:55.313Z,20.27
2023-05-19T09:57:58.159Z,20.53
2023-05-19T10:01:05.498Z,19.15
2023-05-19T10:04:09.206Z,16.55
2023-05-19T10:07:14.542Z,20.23
2023-05-19T10:10:18.624Z,19.90
2023-05-19T10:13:23.648Z,18.90
2023-05-19T10:16:28.260Z,16.92
2023-05-19T10:19:31.686Z,16.70
2023-05-19T10:22:34.915Z,13.63
2023-05-19T10:25:38.725Z,15.43
2023-05-19T10:28:43.565Z,19.97
2023-05-19T10:31:50.761Z,13.45
2023-05-19T10:35:32.514Z,13.85
2023-05-19T10:38:50.293Z,14.65
2023-05-19T10:42:02.654Z,14.83
2023-05-19T10:45:17.547Z,11.67
2023-05-19T10:48:24.358Z,13.25
2023-05-19T10:51:34.145Z,13.05
2023-05-19T10:54:46.563Z,13.93
2023-05-19T10:57:58.623Z,12.50
2023-05-19T11:01:01.820Z,11.87
2023-05-19T11:04:07.851Z,15.32
2023-05-19T11:07:13.833Z,12.02
2023-05-19T11:10:23.827Z,14.77
2023-05-19T11:13:28.516Z,10.97
2023-05-19T11:16:34.963Z,12.57
2023-05-19T11:19:37.982Z,9.52
2023-05-19T11:22:40.962Z,10.35
2023-05-19T11:25:52.184Z,11.45
2023-05-19T11:28:55.286Z,11.13
2023-05-19T11:31:58.242Z,12.27
2023-05-19T11:35:02.011Z,11.98
2023-05-19T11:38:06.812Z,12.80
2023-05-19T11:41:09.825Z,9.48
2023-05-19T11:44:12.634Z,9.27
2023-05-19T11:47:16.640Z,11.30
2023-05-19T11:50:20.562Z,11.35
2023-05-19T11:53:23.536Z,13.13
2023-05-19T11:56:26.302Z,10.32
2023-05-19T11:59:36.785Z,13.43
2023-05-19T12:02:39.937Z,10.87
2023-05-19T12:05:52.606Z,12.35
2023-05-19T12:09:00.149Z,9.15
2023-05-19T12:12:03.422Z,10.85
2023-05-19T12:15:06.714Z,11.03
2023-05-19T12:18:09.847Z,9.03
2023-05-19T12:21:12.753Z,10.13
2023-05-19T12:24:15.798Z,10.65
2023-05-19T12:27:24.588Z,10.32
2023-05-19T12:30:29.064Z,10.03
2023-05-19T12:33:33.658Z,10.37
2023-05-19T12:36:38.583Z,8.98
2023-05-19T12:39:43.307Z,9.23
2023-05-19T12:42:46.314Z,9.60
2023-05-19T12:45:49.474Z,11.03
2023-05-19T12:48:52.295Z,12.87
2023-05-19T12:51:55.025Z,14.13
2023-05-19T12:55:06.758Z,15.98
2023-05-19T12:58:13.609Z,22.63
2023-05-19T13:01:17.969Z,15.33
2023-05-19T13:04:20.886Z,11.90
2023-05-19T13:07:24.027Z,11.75
2023-05-19T13:10:27.850Z,15.93
2023-05-19T13:13:30.658Z,16.17
2023-05-19T13:16:33.413Z,13.47
2023-05-19T13:19:36.307Z,11.30
2023-05-19T13:22:39.178Z,14.38
2023-05-19T13:25:42.460Z,10.88
2023-05-19T13:28:45.253Z,11.57
2023-05-19T13:31:47.940Z,9.83
2023-05-19T13:34:50.703Z,10.90
2023-05-19T13:37:53.797Z,11.20
2023-05-19T13:40:56.553Z,11.00
2023-05-19T13:43:59.854Z,9.75
2023-05-19T13:47:02.601Z,10.00
2023-05-19T13:50:06.128Z,9.30
2023-05-19T13:53:09.185Z,9.18
2023-05-19T13:56:11.947Z,9.10
2023-05-19T13:59:15.896Z,8.85
2023-05-19T14:02:19.295Z,13.27
2023-05-19T14:05:22.165Z,9.43
2023-05-19T14:08:25.025Z,10.45
2023-05-19T14:11:29.205Z,8.98
2023-05-19T14:14:32.381Z,10.00
2023-05-19T14:17:35.161Z,9.67
2023-05-19T14:20:38.020Z,8.53
2023-05-19T14:23:40.944Z,8.00
2023-05-19T14:26:43.746Z,8.27
2023-05-19T14:29:48.880Z,8.65
2023-05-19T14:32:52.047Z,10.17
2023-05-19T14:35:55.673Z,7.97
2023-05-19T14:38:58.444Z,7.95
2023-05-19T14:42:01.303Z,9.63
2023-05-19T14:45:04.256Z,8.90
2023-05-19T14:48:07.264Z,8.33
2023-05-19T14:51:28.771Z,7.97
2023-05-19T14:54:31.855Z,8.57
2023-05-19T14:57:34.505Z,10.13
2023-05-19T15:00:37.274Z,8.73
2023-05-19T15:03:40.015Z,7.53
2023-05-19T15:06:42.730Z,7.13
2023-05-19T15:09:49.516Z,8.02
2023-05-19T15:12:52.284Z,9.07
2023-05-19T15:16:12.533Z,6.75
2023-05-19T15:19:18.873Z,7.63
2023-05-19T15:22:21.697Z,8.77
2023-05-19T15:25:24.414Z,7.32
2023-05-19T15:28:27.206Z,9.90
2023-05-19T15:31:30.113Z,6.20
2023-05-19T15:34:32.961Z,7.67
2023-05-19T15:37:35.736Z,7.63
2023-05-19T15:40:41.621Z,7.40
2023-05-19T15:43:46.720Z,7.55
2023-05-19T15:46:49.510Z,7.82
2023-05-19T15:49:52.449Z,7.37
2023-05-19T15:52:55.321Z,6.23
2023-05-19T15:55:58.088Z,7.72
2023-05-19T15:59:00.863Z,7.10
2023-05-19T16:02:03.809Z,7.80
2023-05-19T16:05:06.755Z,6.60
2023-05-19T16:08:09.469Z,9.87
2023-05-19T16:11:12.436Z,5.90
2023-05-19T16:14:15.231Z,5.93
2023-05-19T16:17:18.246Z,7.30
2023-05-19T16:20:24.166Z,8.33
2023-05-19T16:23:27.708Z,5.73
2023-05-19T16:26:30.770Z,7.88
2023-05-19T16:29:33.504Z,6.65
2023-05-19T16:32:36.319Z,6.68
2023-05-19T16:35:39.506Z,5.03
2023-05-19T16:38:42.336Z,6.77
2023-05-19T16:41:44.992Z,7.72
2023-05-19T16:44:47.766Z,8.07
2023-05-19T16:47:50.656Z,6.47
2023-05-19T16:50:53.428Z,5.80
2023-05-19T16:53:56.762Z,5.10
2023-05-19T16:56:59.639Z,7.38
2023-05-19T17:00:03.652Z,5.13
2023-05-19T17:03:06.767Z,7.03
2023-05-19T17:06:09.472Z,7.13
2023-05-19T17:09:12.661Z,5.57
2023-05-19T17:12:15.356Z,7.22
2023-05-19T17:15:18.192Z,9.23
2023-05-19T17:18:21.307Z,7.18
2023-05-19T17:21:24.053Z,6.20
2023-05-19T17:24:29.027Z,6.47
2023-05-19T17:27:31.794Z,6.20
2023-05-19T17:30:35.001Z,5.95
2023-05-19T17:33:38.276Z,5.68
2023-05-19T17:36:41.098Z,5.57
2023-05-19T17:39:43.896Z,6.43
2023-05-19T17:42:46.565Z,5.80
2023-05-19T17:45:49.353Z,5.35
2023-05-19T17:48:52.106Z,4.90
2023-05-19T17:51:55.248Z,4.90
2023-05-19T17:54:58.299Z,4.13
2023-05-19T17:58:01.350Z,4.75
2023-05-19T18:01:04.296Z,6.40
2023-05-19T18:04:08.262Z,7.75
2023-05-19T18:07:12.108Z,5.33
2023-05-19T18:10:16.373Z,5.70
2023-05-19T18:13:19.192Z,5.60
2023-05-19T18:16:21.962Z,5.10
2023-05-19T18:19:24.882Z,5.03
2023-05-19T18:22:27.900Z,6.40
2023-05-19T18:25:30.754Z,5.23
2023-05-19T18:28:33.504Z,4.68
2023-05-19T18:31:36.228Z,5.18
2023-05-19T18:34:39.007Z,4.95
2023-05-19T18:37:41.747Z,4.83
2023-05-19T18:40:44.461Z,6.77
2023-05-19T18:43:48.232Z,7.25
2023-05-19T18:46:51.040Z,6.18
2023-05-19T18:49:54.138Z,4.88
2023-05-19T18:52:56.937Z,5.53
2023-05-19T18:55:59.693Z,5.60
2023-05-19T18:59:02.484Z,6.13
2023-05-19T19:02:05.411Z,5.95
2023-05-19T19:05:11.145Z,4.72
2023-05-19T19:08:13.841Z,6.70
2023-05-19T19:11:16.717Z,5.27
2023-05-19T19:14:20.864Z,5.10
2023-05-19T19:17:24.725Z,6.07
2023-05-19T19:20:27.680Z,5.60
2023-05-19T19:23:30.595Z,4.50
2023-05-19T19:26:37.712Z,5.27
2023-05-19T19:29:40.965Z,6.53
2023-05-19T19:32:44.024Z,5.55
2023-05-19T19:35:47.661Z,5.53
2023-05-19T19:38:50.533Z,5.83
2023-05-19T19:41:54.909Z,5.17
2023-05-19T19:44:57.731Z,5.40
2023-05-19T19:48:01.775Z,5.70
2023-05-19T19:51:04.702Z,5.55
2023-05-19T19:54:07.489Z,6.77
2023-05-19T19:57:10.250Z,6.67
2023-05-19T20:00:13.522Z,5.40
2023-05-19T20:03:16.531Z,5.38
2023-05-19T20:06:19.296Z,4.70
2023-05-19T20:09:22.087Z,4.87
2023-05-19T20:12:24.937Z,6.57
2023-05-19T20:15:27.663Z,5.07
2023-05-19T20:18:30.488Z,4.72
2023-05-19T20:21:36.221Z,6.00
2023-05-19T20:24:38.965Z,5.73
2023-05-19T20:27:41.638Z,6.40
2023-05-19T20:30:44.526Z,5.90
2023-05-19T20:33:47.417Z,7.25
2023-05-19T20:36:50.178Z,5.38
2023-05-19T20:39:52.882Z,5.73
2023-05-19T20:42:55.619Z,5.63
2023-05-19T20:45:58.483Z,4.75
2023-05-19T20:49:01.470Z,4.45
2023-05-19T20:52:04.467Z,5.18
2023-05-19T20:55:07.463Z,5.10
2023-05-19T20:58:10.134Z,5.87
2023-05-19T21:01:15.747Z,5.38
2023-05-19T21:04:18.755Z,5.38
2023-05-19T21:07:24.028Z,5.40
2023-05-19T21:10:26.773Z,5.80
2023-05-19T21:13:32.351Z,5.03
2023-05-19T21:16:38.968Z,5.03
2023-05-19T21:19:41.841Z,5.70
2023-05-19T21:22:44.554Z,5.05
2023-05-19T21:25:47.557Z,4.47
2023-05-19T21:28:50.244Z,4.73
2023-05-19T21:31:56.175Z,6.30
2023-05-19T21:35:00.114Z,4.47
2023-05-19T21:38:12.155Z,5.18
2023-05-19T21:41:25.195Z,4.53
2023-05-19T21:44:28.027Z,4.87
2023-05-19T21:47:30.835Z,6.15
2023-05-19T21:50:37.659Z,5.60
2023-05-19T21:53:40.668Z,5.15
2023-05-19T21:56:43.396Z,4.03
2023-05-19T21:59:46.270Z,5.13
2023-05-19T22:02:53.616Z,5.32
2023-05-19T22:05:58.679Z,5.03
2023-05-19T22:09:02.749Z,3.95
2023-05-19T22:12:06.136Z,4.50
2023-05-19T22:15:09.598Z,5.57
2023-05-19T22:18:12.562Z,4.93
2023-05-19T22:21:15.494Z,4.47
2023-05-19T22:24:18.752Z,5.55
2023-05-19T22:27:21.654Z,5.33
2023-05-19T22:30:24.507Z,6.40
2023-05-19T22:33:27.475Z,4.32
2023-05-19T22:36:30.291Z,4.43
2023-05-19T22:39:32.962Z,5.15
2023-05-19T22:42:35.811Z,4.60
2023-05-19T22:45:38.854Z,5.20
2023-05-19T22:48:41.559Z,5.22
2023-05-19T22:51:44.303Z,4.82
2023-05-19T22:54:47.036Z,4.57
2023-05-19T22:57:50.112Z,4.47
2023-05-19T23:00:52.907Z,4.40
2023-05-19T23:03:55.733Z,4.13
2023-05-19T23:06:58.856Z,4.40
2023-05-19T23:10:01.847Z,5.60
2023-05-19T23:13:04.963Z,4.07
2023-05-19T23:16:07.811Z,4.47
2023-05-19T23:19:10.736Z,4.25
2023-05-19T23:22:13.452Z,4.50
2023-05-19T23:25:19.766Z,5.20
2023-05-19T23:28:29.577Z,4.03
2023-05-19T23:31:32.417Z,4.23
2023-05-19T23:34:38.024Z,4.97
2023-05-19T23:37:40.980Z,4.70
2023-05-19T23:40:44.151Z,4.13
2023-05-19T23:43:47.052Z,3.87
2023-05-19T23:46:49.758Z,5.27
2023-05-19T23:49:52.535Z,4.70
2023-05-19T23:52:55.305Z,3.85
2023-05-19T23:55:58.744Z,4.07
2023-05-19T23:59:01.673Z,4.57
